Time;durP1;ratioP1;P1;durP2;ratioP2;P2;SDS_P1;SDS_P2;PMS_P1;PMS_P2;Temp;Humidity;BMP_temperature;BMP_pressure;BME280_temperature;BME280_humidity;BME280_pressure;Samples;Min_cycle;Max_cycle;Signal;HPM_P1;HPM_P2
2023/03/20 00:00:45;;;;;;;0.00;0.00;;;;;;;;;;2177036;22;20667;-60
2023/03/20 00:01:37;;;;;;;0.00;0.00;;;;;;;;;;2179972;22;20291;-60
2023/03/20 00:02:28;;;;;;;0.00;0.00;;;;;;;;;;2180212;22;20177;-60
2023/03/20 00:03:22;;;;;;;0.00;0.00;;;;;;;;;;2180535;22;20176;-60
2023/03/20 00:04:13;;;;;;;0.00;0.00;;;;;;;;;;2180444;22;20176;-60
2023/03/20 00:05:17;;;;;;;0.00;0.00;;;;;;;;;;2180783;22;20230;-59
2023/03/20 00:06:12;;;;;;;0.00;0.00;;;;;;;;;;2177717;22;20592;-58
2023/03/20 00:07:09;;;;;;;0.00;0.00;;;;;;;;;;2180163;22;20660;-61
2023/03/20 00:08:00;;;;;;;0.00;0.00;;;;;;;;;;2180467;22;20222;-59
2023/03/20 00:08:53;;;;;;;0.00;0.00;;;;;;;;;;2180305;22;20700;-61
2023/03/20 00:09:44;;;;;;;0.00;0.00;;;;;;;;;;2180240;22;20234;-61
2023/03/20 00:10:38;;;;;;;0.00;0.00;;;;;;;;;;2177474;22;20279;-60
2023/03/20 00:11:30;;;;;;;0.00;0.00;;;;;;;;;;2180222;22;20241;-61
2023/03/20 00:12:24;;;;;;;0.00;0.00;;;;;;;;;;2179989;22;20259;-60
2023/03/20 00:13:19;;;;;;;0.00;0.00;;;;;;;;;;2180477;22;20184;-61
2023/03/20 00:14:13;;;;;;;0.00;0.00;;;;;;;;;;2180119;22;20180;-60
2023/03/20 00:15:06;;;;;;;0.00;0.00;;;;;;;;;;2181327;22;20181;-59
2023/03/20 00:15:58;;;;;;;0.00;0.00;;;;;;;;;;2177901;22;20204;-60
2023/03/20 00:16:50;;;;;;;0.00;0.00;;;;;;;;;;2180443;22;20179;-60
2023/03/20 00:17:41;;;;;;;0.00;0.00;;;;;;;;;;2181632;22;20202;-61
2023/03/20 00:18:34;;;;;;;0.00;0.00;;;;;;;;;;2181289;22;20303;-61
2023/03/20 00:19:28;;;;;;;0.00;0.00;;;;;;;;;;2181643;22;20234;-61
2023/03/20 00:20:20;;;;;;;0.00;0.00;;;;;;;;;;2178077;22;20187;-60
2023/03/20 00:21:16;;;;;;;0.00;0.00;;;;;;;;;;2181068;22;20239;-60
2023/03/20 00:22:09;;;;;;;0.00;0.00;;;;;;;;;;2180880;22;20157;-60
2023/03/20 00:23:00;;;;;;;0.00;0.00;;;;;;;;;;2181317;22;20183;-60
2023/03/20 00:23:52;;;;;;;0.00;0.00;;;;;;;;;;2180826;22;20192;-60
2023/03/20 00:24:43;;;;;;;0.00;0.00;;;;;;;;;;2181033;22;20630;-60
2023/03/20 00:25:35;;;;;;;0.00;0.00;;;;;;;;;;2178066;22;20522;-60
2023/03/20 00:26:30;;;;;;;0.00;0.00;;;;;;;;;;2180802;22;20705;-60
2023/03/20 00:27:22;;;;;;;0.00;0.00;;;;;;;;;;2180875;22;20179;-60
2023/03/20 00:28:28;;;;;;;0.00;0.00;;;;;;;;;;2181153;22;20698;-60
2023/03/20 00:29:21;;;;;;;0.00;0.00;;;;;;;;;;2181361;22;20566;-60
2023/03/20 00:30:16;;;;;;;0.00;0.00;;;;;;;;;;2179313;22;20177;-59
2023/03/20 00:31:14;;;;;;;0.00;0.00;;;;;;;;;;2180703;22;20695;-60
2023/03/20 00:32:08;;;;;;;0.00;0.00;;;;;;;;;;2184651;22;20248;-60
2023/03/20 00:33:00;;;;;;;0.00;0.00;;;;;;;;;;2181209;22;20173;-60
2023/03/20 00:33:53;;;;;;;0.00;0.00;;;;;;;;;;2180826;22;20541;-60
2023/03/20 00:34:45;;;;;;;0.00;0.00;;;;;;;;;;2180968;22;20334;-60
2023/03/20 00:35:36;;;;;;;0.00;0.00;;;;;;;;;;2178169;22;20550;-61
2023/03/20 00:36:29;;;;;;;0.00;0.00;;;;;;;;;;2180685;22;20539;-60
2023/03/20 00:37:20;;;;;;;0.00;0.00;;;;;;;;;;2181106;22;20700;-61
2023/03/20 00:38:12;;;;;;;0.00;0.00;;;;;;;;;;2181522;22;20176;-60
2023/03/20 00:39:03;;;;;;;0.03;0.03;;;;;;;;;;2181494;22;20177;-60
2023/03/20 00:39:55;;;;;;;0.00;0.00;;;;;;;;;;2181807;22;20274;-61
2023/03/20 00:40:46;;;;;;;0.00;0.00;;;;;;;;;;2178776;22;20265;-61
2023/03/20 00:41:41;;;;;;;0.00;0.00;;;;;;;;;;2181673;22;20211;-61
2023/03/20 00:42:32;;;;;;;0.00;0.00;;;;;;;;;;2182151;22;20657;-61
2023/03/20 00:43:24;;;;;;;0.00;0.00;;;;;;;;;;2181690;22;20581;-59
2023/03/20 00:44:19;;;;;;;0.00;0.00;;;;;;;;;;2181694;22;20176;-61
2023/03/20 00:45:13;;;;;;;0.00;0.00;;;;;;;;;;2180316;22;20229;-59
2023/03/20 00:46:07;;;;;;;0.00;0.00;;;;;;;;;;2180289;22;20381;-60
2023/03/20 00:47:00;;;;;;;0.00;0.00;;;;;;;;;;2181122;22;20169;-61
2023/03/20 00:47:51;;;;;;;0.00;0.00;;;;;;;;;;2182526;22;20177;-60
2023/03/20 00:48:44;;;;;;;0.00;0.00;;;;;;;;;;2181523;22;20174;-60
2023/03/20 00:49:37;;;;;;;0.00;0.00;;;;;;;;;;2181574;22;20188;-61
2023/03/20 00:50:30;;;;;;;0.00;0.00;;;;;;;;;;2178823;22;20177;-61
2023/03/20 00:51:21;;;;;;;0.00;0.00;;;;;;;;;;2181646;22;20184;-61
2023/03/20 00:52:13;;;;;;;0.00;0.00;;;;;;;;;;2182067;22;20172;-60
2023/03/20 00:53:06;;;;;;;0.00;0.00;;;;;;;;;;2182336;22;20187;-60
2023/03/20 00:53:58;;;;;;;0.00;0.00;;;;;;;;;;2180924;22;20255;-61
2023/03/20 00:54:49;;;;;;;0.00;0.00;;;;;;;;;;2181588;22;20699;-61
2023/03/20 00:55:41;;;;;;;0.00;0.00;;;;;;;;;;2178056;22;20204;-61
2023/03/20 00:56:32;;;;;;;0.00;0.00;;;;;;;;;;2181483;22;20165;-61
2023/03/20 00:57:26;;;;;;;0.00;0.00;;;;;;;;;;2180630;22;20733;-61
2023/03/20 00:58:17;;;;;;;0.00;0.00;;;;;;;;;;2181617;22;20302;-61
2023/03/20 00:59:10;;;;;;;0.00;0.00;;;;;;;;;;2181385;22;20173;-61
2023/03/20 01:00:03;;;;;;;0.00;0.00;;;;;;;;;;2181143;22;20588;-60
2023/03/20 07:47:53;;;;;;;0.00;0.00;;;;;;;;;;2174527;22;20629;-62
2023/03/20 07:48:44;;;;;;;0.10;0.10;;;;;;;;;;2182570;22;20162;-62
2023/03/20 07:49:36;;;;;;;0.00;0.00;;;;;;;;;;2181490;22;20176;-61
2023/03/20 07:50:27;;;;;;;0.00;0.00;;;;;;;;;;2177627;22;20203;-62
2023/03/20 07:51:19;;;;;;;0.00;0.00;;;;;;;;;;2179983;22;20164;-61
2023/03/20 07:52:10;;;;;;;0.00;0.00;;;;;;;;;;2179629;22;20230;-61
2023/03/20 07:53:02;;;;;;;0.00;0.00;;;;;;;;;;2180424;22;20229;-62
2023/03/20 07:53:53;;;;;;;0.00;0.00;;;;;;;;;;2180291;22;20644;-61
2023/03/20 07:54:45;;;;;;;0.00;0.00;;;;;;;;;;2180314;22;20192;-61
2023/03/20 07:55:36;;;;;;;0.00;0.00;;;;;;;;;;2177758;22;20260;-61
2023/03/20 07:56:28;;;;;;;0.00;0.00;;;;;;;;;;2180372;22;20157;-62
2023/03/20 07:57:19;;;;;;;0.00;0.00;;;;;;;;;;2180383;22;20489;-60
2023/03/20 07:58:11;;;;;;;0.00;0.00;;;;;;;;;;2183790;22;20176;-61
2023/03/20 07:59:02;;;;;;;0.00;0.00;;;;;;;;;;2180298;22;20173;-61
2023/03/20 07:59:54;;;;;;;0.00;0.00;;;;;;;;;;2180335;22;20219;-61
2023/03/20 08:00:45;;;;;;;0.00;0.00;;;;;;;;;;2177189;22;20604;-62
2023/03/20 08:01:37;;;;;;;0.00;0.00;;;;;;;;;;2180514;22;20534;-62
2023/03/20 08:02:28;;;;;;;0.00;0.00;;;;;;;;;;2180643;22;20230;-62
2023/03/20 08:03:22;;;;;;;0.00;0.00;;;;;;;;;;2180508;22;20177;-61
2023/03/20 08:04:13;;;;;;;0.00;0.00;;;;;;;;;;2180570;22;20697;-61
2023/03/20 08:05:05;;;;;;;0.00;0.00;;;;;;;;;;2180343;22;20537;-60
2023/03/20 08:05:56;;;;;;;0.00;0.00;;;;;;;;;;2177769;22;20219;-61
2023/03/20 08:06:48;;;;;;;0.00;0.00;;;;;;;;;;2179951;22;20211;-61
2023/03/20 08:07:39;;;;;;;0.00;0.00;;;;;;;;;;2180370;22;20508;-61
2023/03/20 08:08:31;;;;;;;0.00;0.00;;;;;;;;;;2180451;22;20182;-61
2023/03/20 08:09:23;;;;;;;0.00;0.00;;;;;;;;;;2180654;22;20657;-60
2023/03/20 08:10:15;;;;;;;0.00;0.00;;;;;;;;;;2177798;22;20183;-61
2023/03/20 08:11:06;;;;;;;0.00;0.00;;;;;;;;;;2180066;22;20161;-61
2023/03/20 08:11:58;;;;;;;0.00;0.00;;;;;;;;;;2180359;22;20548;-60
2023/03/20 08:12:49;;;;;;;0.00;0.00;;;;;;;;;;2180347;22;20177;-60
2023/03/20 08:13:41;;;;;;;0.00;0.00;;;;;;;;;;2179926;22;20188;-60
2023/03/20 08:14:33;;;;;;;0.00;0.00;;;;;;;;;;2180348;22;20203;-61
2023/03/20 08:15:25;;;;;;;0.00;0.00;;;;;;;;;;2177673;22;20176;-61
2023/03/20 08:16:16;;;;;;;0.00;0.00;;;;;;;;;;2180039;22;20165;-61
2023/03/20 08:17:08;;;;;;;0.00;0.00;;;;;;;;;;2180277;22;20195;-61
2023/03/20 08:17:59;;;;;;;0.00;0.00;;;;;;;;;;2179510;22;20196;-61
2023/03/20 08:18:55;;;;;;;0.00;0.00;;;;;;;;;;2180223;22;20230;-60
2023/03/20 08:19:46;;;;;;;0.00;0.00;;;;;;;;;;2183774;22;20659;-61
2023/03/20 08:20:38;;;;;;;0.00;0.00;;;;;;;;;;2178004;22;20204;-60
2023/03/20 08:21:29;;;;;;;0.00;0.00;;;;;;;;;;2180145;22;20210;-60
2023/03/20 08:22:21;;;;;;;0.00;0.00;;;;;;;;;;2180249;22;20172;-60
2023/03/20 08:23:13;;;;;;;0.00;0.00;;;;;;;;;;2180669;22;20262;-60
2023/03/20 08:24:05;;;;;;;0.00;0.00;;;;;;;;;;2180138;22;20173;-61
2023/03/20 08:24:56;;;;;;;0.00;0.00;;;;;;;;;;2180440;22;20653;-61
2023/03/20 08:25:48;;;;;;;0.00;0.00;;;;;;;;;;2177187;22;20211;-61
2023/03/20 08:26:40;;;;;;;0.00;0.00;;;;;;;;;;2180416;22;20173;-61
2023/03/20 08:27:32;;;;;;;0.00;0.00;;;;;;;;;;2180511;22;20183;-61
2023/03/20 08:28:23;;;;;;;0.00;0.00;;;;;;;;;;2180241;22;20465;-60
2023/03/20 08:29:18;;;;;;;0.00;0.00;;;;;;;;;;2180344;22;20225;-61
2023/03/20 08:30:09;;;;;;;0.00;0.00;;;;;;;;;;2180142;22;20213;-60
2023/03/20 08:31:02;;;;;;;0.00;0.00;;;;;;;;;;2178313;22;20713;-61
2023/03/20 08:31:53;;;;;;;0.00;0.00;;;;;;;;;;2180255;22;20177;-61
2023/03/20 08:32:45;;;;;;;0.00;0.00;;;;;;;;;;2180557;22;20176;-61
2023/03/20 08:33:36;;;;;;;0.00;0.00;;;;;;;;;;2180282;22;21005;-60
2023/03/20 08:34:32;;;;;;;0.00;0.00;;;;;;;;;;2180316;22;20172;-61
2023/03/20 08:35:23;;;;;;;0.00;0.00;;;;;;;;;;2177915;22;20184;-61
2023/03/20 08:36:18;;;;;;;0.00;0.00;;;;;;;;;;2179659;22;20456;-61
2023/03/20 08:37:11;;;;;;;0.00;0.00;;;;;;;;;;2180048;22;20177;-61
2023/03/20 08:38:03;;;;;;;0.00;0.00;;;;;;;;;;2180325;22;20235;-61
2023/03/20 08:38:54;;;;;;;0.00;0.00;;;;;;;;;;2179976;22;20543;-61
2023/03/20 08:39:46;;;;;;;0.00;0.00;;;;;;;;;;2180474;22;20673;-61
2023/03/20 08:40:40;;;;;;;0.00;0.00;;;;;;;;;;2177570;22;20612;-61
2023/03/20 08:41:32;;;;;;;0.00;0.00;;;;;;;;;;2180533;22;20206;-61
2023/03/20 08:42:23;;;;;;;0.00;0.00;;;;;;;;;;2180271;22;20184;-60
2023/03/20 08:43:15;;;;;;;0.00;0.00;;;;;;;;;;2180588;22;20207;-60
2023/03/20 08:44:07;;;;;;;0.00;0.00;;;;;;;;;;2180149;22;20184;-61
2023/03/20 08:44:59;;;;;;;0.00;0.00;;;;;;;;;;2180237;22;20697;-61
2023/03/20 08:45:50;;;;;;;0.00;0.00;;;;;;;;;;2177390;22;20801;-61
2023/03/20 08:46:43;;;;;;;0.00;0.00;;;;;;;;;;2180083;22;20669;-61
2023/03/20 08:47:34;;;;;;;0.00;0.00;;;;;;;;;;2179958;22;20212;-61
2023/03/20 08:48:26;;;;;;;0.00;0.00;;;;;;;;;;2171871;22;20209;-61
2023/03/20 08:49:18;;;;;;;0.00;0.00;;;;;;;;;;2169450;22;20234;-61
2023/03/20 08:50:11;;;;;;;0.00;0.00;;;;;;;;;;2168593;22;20650;-61
2023/03/20 08:51:04;;;;;;;0.00;0.00;;;;;;;;;;2168232;22;20592;-61
2023/03/20 08:51:56;;;;;;;0.00;0.00;;;;;;;;;;2169107;22;20177;-60
2023/03/20 08:52:47;;;;;;;0.00;0.00;;;;;;;;;;2169413;22;20628;-62
2023/03/20 08:53:39;;;;;;;0.00;0.00;;;;;;;;;;2169382;22;20193;-61
2023/03/20 08:54:30;;;;;;;0.00;0.00;;;;;;;;;;2169926;22;20248;-61
2023/03/20 08:55:22;;;;;;;0.00;0.00;;;;;;;;;;2167113;22;20235;-60
2023/03/20 08:56:13;;;;;;;0.00;0.00;;;;;;;;;;2169510;22;20207;-60
2023/03/20 08:57:05;;;;;;;0.00;0.00;;;;;;;;;;2169400;22;20630;-60
2023/03/20 08:57:56;;;;;;;0.00;0.00;;;;;;;;;;2169765;22;20184;-60
2023/03/20 08:58:48;;;;;;;0.00;0.00;;;;;;;;;;2169925;22;20231;-60
2023/03/20 08:59:39;;;;;;;0.00;0.00;;;;;;;;;;2169992;22;20178;-62
2023/03/20 09:00:31;;;;;;;0.00;0.00;;;;;;;;;;2167688;22;20204;-60
2023/03/20 09:01:23;;;;;;;0.00;0.00;;;;;;;;;;2170108;22;20173;-60
2023/03/20 09:02:15;;;;;;;0.00;0.00;;;;;;;;;;2170419;22;20174;-61
2023/03/20 09:03:06;;;;;;;0.00;0.00;;;;;;;;;;2170237;22;20223;-60
2023/03/20 09:03:58;;;;;;;0.00;0.00;;;;;;;;;;2170033;22;20712;-61
2023/03/20 09:04:49;;;;;;;0.00;0.00;;;;;;;;;;2170345;22;20319;-61
2023/03/20 09:05:42;;;;;;;0.00;0.00;;;;;;;;;;2167252;22;20748;-61
2023/03/20 09:06:35;;;;;;;0.00;0.00;;;;;;;;;;2170223;22;20177;-62
2023/03/20 09:07:27;;;;;;;0.00;0.00;;;;;;;;;;2170039;22;20185;-59
2023/03/20 09:08:18;;;;;;;0.00;0.00;;;;;;;;;;2170005;22;20552;-60
2023/03/20 09:09:10;;;;;;;0.00;0.00;;;;;;;;;;2170130;22;20255;-60
2023/03/20 09:10:01;;;;;;;0.00;0.00;;;;;;;;;;2170149;22;20747;-60
2023/03/20 09:10:54;;;;;;;0.00;0.00;;;;;;;;;;2167344;22;20694;-61
2023/03/20 09:11:45;;;;;;;0.00;0.00;;;;;;;;;;2169990;22;20570;-60
2023/03/20 09:12:37;;;;;;;0.00;0.00;;;;;;;;;;2170162;22;20169;-61
2023/03/20 09:13:28;;;;;;;0.00;0.00;;;;;;;;;;2170007;22;20181;-60
2023/03/20 09:14:20;;;;;;;0.00;0.00;;;;;;;;;;2169630;22;20182;-59
2023/03/20 09:15:11;;;;;;;0.00;0.00;;;;;;;;;;2168339;22;20177;-59
2023/03/20 09:16:03;;;;;;;0.00;0.00;;;;;;;;;;2168061;22;20225;-59
2023/03/20 09:16:54;;;;;;;0.00;0.00;;;;;;;;;;2169862;22;20635;-61
2023/03/20 09:17:46;;;;;;;0.00;0.00;;;;;;;;;;2169593;22;20253;-61
2023/03/20 09:18:37;;;;;;;0.00;0.00;;;;;;;;;;2169678;22;20209;-60
2023/03/20 09:19:29;;;;;;;0.00;0.00;;;;;;;;;;2170575;22;20630;-60
2023/03/20 09:20:20;;;;;;;0.00;0.00;;;;;;;;;;2167565;22;20181;-60
2023/03/20 09:21:14;;;;;;;0.00;0.00;;;;;;;;;;2169841;22;20173;-60
2023/03/20 09:22:05;;;;;;;0.00;0.00;;;;;;;;;;2169762;22;20346;-61
2023/03/20 09:22:57;;;;;;;0.00;0.00;;;;;;;;;;2170470;22;20888;-60
2023/03/20 09:23:48;;;;;;;0.00;0.00;;;;;;;;;;2169781;22;20193;-61
2023/03/20 09:24:40;;;;;;;0.00;0.00;;;;;;;;;;2169986;22;20173;-62
2023/03/20 09:25:31;;;;;;;0.00;0.00;;;;;;;;;;2167514;22;20209;-61
2023/03/20 09:26:23;;;;;;;0.00;0.00;;;;;;;;;;2169928;22;20247;-62
2023/03/20 09:27:14;;;;;;;0.00;0.00;;;;;;;;;;2170145;22;20207;-61
2023/03/20 09:28:06;;;;;;;0.00;0.00;;;;;;;;;;2169818;22;20182;-60
2023/03/20 09:28:57;;;;;;;0.00;0.00;;;;;;;;;;2169799;22;20239;-59
2023/03/20 09:29:49;;;;;;;0.00;0.00;;;;;;;;;;2170022;22;20173;-62
2023/03/20 09:30:42;;;;;;;0.00;0.00;;;;;;;;;;2167072;22;20666;-61
2023/03/20 09:31:34;;;;;;;0.00;0.00;;;;;;;;;;2170157;22;20201;-61
2023/03/20 09:32:25;;;;;;;0.00;0.00;;;;;;;;;;2170859;22;20177;-61
2023/03/20 09:33:17;;;;;;;0.00;0.00;;;;;;;;;;2171472;22;20177;-60
2023/03/20 09:34:09;;;;;;;0.00;0.00;;;;;;;;;;2170354;22;20570;-61
2023/03/20 09:35:00;;;;;;;0.00;0.00;;;;;;;;;;2170366;22;20188;-61
2023/03/20 09:35:52;;;;;;;0.00;0.00;;;;;;;;;;2167142;22;20197;-61
2023/03/20 09:36:45;;;;;;;0.00;0.00;;;;;;;;;;2169547;22;20260;-60
2023/03/20 09:37:37;;;;;;;0.00;0.00;;;;;;;;;;2170392;22;20174;-59
2023/03/20 09:38:28;;;;;;;0.00;0.00;;;;;;;;;;2170226;22;20205;-61
2023/03/20 09:39:20;;;;;;;0.00;0.00;;;;;;;;;;2170463;22;20283;-61
2023/03/20 09:40:19;;;;;;;0.00;0.00;;;;;;;;;;2169108;22;20711;-61
2023/03/20 09:41:14;;;;;;;0.00;0.00;;;;;;;;;;2169391;22;20206;-60
2023/03/20 09:42:08;;;;;;;0.00;0.00;;;;;;;;;;2170633;22;20186;-61
2023/03/20 09:43:06;;;;;;;0.00;0.00;;;;;;;;;;2170779;22;20169;-61
2023/03/20 09:44:04;;;;;;;0.00;0.00;;;;;;;;;;2170286;22;20205;-61
2023/03/20 09:45:00;;;;;;;0.00;0.00;;;;;;;;;;2170466;22;20264;-60
2023/03/20 09:45:56;;;;;;;0.00;0.00;;;;;;;;;;2167514;22;20213;-61
2023/03/20 09:46:56;;;;;;;0.00;0.00;;;;;;;;;;2170436;22;20221;-61
2023/03/20 09:47:53;;;;;;;0.00;0.00;;;;;;;;;;2170289;22;20684;-61
2023/03/20 09:48:46;;;;;;;0.00;0.00;;;;;;;;;;2180735;22;20173;-60
2023/03/20 09:49:41;;;;;;;0.00;0.00;;;;;;;;;;2181166;22;20560;-60
2023/03/20 09:50:34;;;;;;;0.00;0.00;;;;;;;;;;2178575;22;20336;-61
2023/03/20 09:51:32;;;;;;;0.00;0.00;;;;;;;;;;2181006;22;20240;-61
2023/03/20 09:52:29;;;;;;;0.00;0.00;;;;;;;;;;2180957;22;20638;-59
2023/03/20 09:53:23;;;;;;;0.00;0.00;;;;;;;;;;2180916;22;20161;-61
2023/03/20 09:54:20;;;;;;;0.00;0.00;;;;;;;;;;2181088;22;20260;-61
2023/03/20 09:55:13;;;;;;;0.00;0.00;;;;;;;;;;2179569;22;20161;-61
2023/03/20 09:56:06;;;;;;;0.00;0.00;;;;;;;;;;2179897;22;20197;-61
2023/03/20 09:56:57;;;;;;;0.00;0.00;;;;;;;;;;2180750;22;20710;-61
2023/03/20 09:57:51;;;;;;;0.00;0.00;;;;;;;;;;2180292;22;20172;-60
2023/03/20 09:58:42;;;;;;;0.00;0.00;;;;;;;;;;2180672;22;20197;-61
2023/03/20 09:59:35;;;;;;;0.00;0.00;;;;;;;;;;2180894;22;20183;-62
2023/03/20 10:00:28;;;;;;;0.00;0.00;;;;;;;;;;2178388;22;20614;-61
2023/03/20 10:01:21;;;;;;;0.00;0.00;;;;;;;;;;2180818;22;20168;-61
2023/03/20 10:02:14;;;;;;;0.00;0.00;;;;;;;;;;2180504;22;20219;-62
2023/03/20 10:03:08;;;;;;;0.00;0.00;;;;;;;;;;2180897;22;20280;-61
2023/03/20 10:04:01;;;;;;;0.00;0.00;;;;;;;;;;2180171;22;20249;-61
2023/03/20 10:04:54;;;;;;;0.00;0.00;;;;;;;;;;2180331;22;20222;-59
2023/03/20 10:05:47;;;;;;;0.00;0.00;;;;;;;;;;2177273;22;20215;-61
2023/03/20 10:06:39;;;;;;;0.00;0.00;;;;;;;;;;2180664;22;20552;-61
2023/03/20 10:07:32;;;;;;;0.00;0.00;;;;;;;;;;2180803;22;20200;-61
2023/03/20 10:08:26;;;;;;;0.00;0.00;;;;;;;;;;2180516;22;20613;-61
2023/03/20 10:09:21;;;;;;;0.00;0.00;;;;;;;;;;2180787;22;20173;-61
2023/03/20 10:10:13;;;;;;;0.00;0.00;;;;;;;;;;2178906;22;20161;-62
2023/03/20 10:11:15;;;;;;;0.00;0.00;;;;;;;;;;2180510;22;20181;-61
2023/03/20 10:12:17;;;;;;;0.00;0.00;;;;;;;;;;2184354;22;20169;-61
2023/03/20 10:13:21;;;;;;;0.00;0.00;;;;;;;;;;2184293;22;20241;-61
2023/03/20 10:14:17;;;;;;;0.00;0.00;;;;;;;;;;2184177;22;20560;-62
2023/03/20 10:15:14;;;;;;;0.00;0.00;;;;;;;;;;2184197;22;20495;-61
2023/03/20 10:16:11;;;;;;;0.00;0.00;;;;;;;;;;2178369;22;20212;-60
2023/03/20 10:17:09;;;;;;;0.00;0.00;;;;;;;;;;2180776;22;20153;-61
2023/03/20 10:18:02;;;;;;;0.00;0.00;;;;;;;;;;2180173;22;20210;-61
2023/03/20 10:19:00;;;;;;;0.00;0.00;;;;;;;;;;2180235;22;20200;-61
2023/03/20 10:19:53;;;;;;;0.00;0.00;;;;;;;;;;2184504;22;20244;-61
2023/03/20 10:20:47;;;;;;;0.00;0.00;;;;;;;;;;2177789;22;20265;-61
2023/03/20 10:21:42;;;;;;;0.00;0.00;;;;;;;;;;2180624;22;20192;-61
2023/03/20 10:22:37;;;;;;;0.00;0.00;;;;;;;;;;2180865;22;20550;-61
2023/03/20 10:23:32;;;;;;;0.00;0.00;;;;;;;;;;2180863;22;20185;-61
2023/03/20 10:24:28;;;;;;;0.00;0.00;;;;;;;;;;2180540;22;20157;-61
2023/03/20 10:25:22;;;;;;;0.00;0.00;;;;;;;;;;2178087;22;20165;-62
2023/03/20 10:26:16;;;;;;;0.00;0.00;;;;;;;;;;2180495;22;20161;-61
2023/03/20 10:27:13;;;;;;;0.00;0.00;;;;;;;;;;2180406;22;20696;-61
2023/03/20 10:28:07;;;;;;;0.00;0.00;;;;;;;;;;2180973;22;20156;-61
2023/03/20 10:28:59;;;;;;;0.00;0.00;;;;;;;;;;2180584;22;20177;-61
2023/03/20 10:29:55;;;;;;;0.00;0.00;;;;;;;;;;2180806;22;20175;-61
2023/03/20 10:30:52;;;;;;;0.00;0.00;;;;;;;;;;2178110;22;20822;-62
2023/03/20 10:31:45;;;;;;;0.00;0.00;;;;;;;;;;2180884;22;20861;-62
2023/03/20 10:32:38;;;;;;;0.00;0.00;;;;;;;;;;2181105;22;20173;-62
2023/03/20 10:33:35;;;;;;;0.00;0.00;;;;;;;;;;2180837;22;20237;-61
2023/03/20 10:34:35;;;;;;;0.00;0.00;;;;;;;;;;2180874;22;20168;-61
2023/03/20 10:35:28;;;;;;;0.00;0.00;;;;;;;;;;2178172;22;20192;-61
2023/03/20 10:36:27;;;;;;;0.00;0.00;;;;;;;;;;2180233;22;20518;-61
2023/03/20 10:37:25;;;;;;;0.00;0.00;;;;;;;;;;2180345;22;20161;-61
2023/03/20 10:38:24;;;;;;;0.00;0.00;;;;;;;;;;2180628;22;20160;-60
2023/03/20 10:39:18;;;;;;;0.00;0.00;;;;;;;;;;2180647;22;20181;-61
2023/03/20 10:40:18;;;;;;;0.00;0.00;;;;;;;;;;2180745;22;20172;-63
2023/03/20 10:41:10;;;;;;;0.00;0.00;;;;;;;;;;2178635;22;20614;-61
2023/03/20 10:42:03;;;;;;;0.00;0.00;;;;;;;;;;2180764;22;20179;-61
2023/03/20 10:42:56;;;;;;;0.00;0.00;;;;;;;;;;2181050;22;20177;-61
2023/03/20 10:43:50;;;;;;;0.00;0.00;;;;;;;;;;2180548;22;20507;-60
2023/03/20 10:44:42;;;;;;;0.00;0.00;;;;;;;;;;2180487;22;20173;-60
2023/03/20 10:45:36;;;;;;;0.00;0.00;;;;;;;;;;2177818;22;20211;-59
2023/03/20 10:46:29;;;;;;;0.00;0.00;;;;;;;;;;2180351;22;20177;-60
2023/03/20 10:47:23;;;;;;;0.00;0.00;;;;;;;;;;2180023;22;20183;-60
2023/03/20 10:48:17;;;;;;;0.00;0.00;;;;;;;;;;2179696;22;20213;-60
2023/03/20 10:49:13;;;;;;;0.00;0.00;;;;;;;;;;2180161;22;20177;-60
2023/03/20 10:50:08;;;;;;;0.00;0.00;;;;;;;;;;2184275;22;20153;-59
2023/03/20 10:51:02;;;;;;;0.00;0.00;;;;;;;;;;2177592;22;20544;-61
2023/03/20 10:51:54;;;;;;;0.00;0.00;;;;;;;;;;2180193;22;20172;-60
2023/03/20 10:52:47;;;;;;;0.00;0.00;;;;;;;;;;2180549;22;20172;-60
2023/03/20 10:53:42;;;;;;;0.00;0.00;;;;;;;;;;2180466;22;20235;-60
2023/03/20 10:54:36;;;;;;;0.00;0.00;;;;;;;;;;2181079;22;20166;-60
2023/03/20 10:55:28;;;;;;;0.00;0.00;;;;;;;;;;2178105;22;20585;-60
2023/03/20 10:56:23;;;;;;;0.00;0.00;;;;;;;;;;2180426;22;20162;-60
2023/03/20 10:57:17;;;;;;;0.00;0.00;;;;;;;;;;2180453;22;20232;-60
2023/03/20 10:58:14;;;;;;;0.00;0.00;;;;;;;;;;2180078;22;20183;-59
2023/03/20 10:59:09;;;;;;;0.00;0.00;;;;;;;;;;2180412;22;20220;-60
2023/03/20 11:00:00;;;;;;;0.00;0.00;;;;;;;;;;2180668;22;20174;-60
2023/03/20 11:00:54;;;;;;;0.00;0.00;;;;;;;;;;2177945;22;20250;-60
2023/03/20 11:01:45;;;;;;;0.00;0.00;;;;;;;;;;2180699;22;20176;-59
2023/03/20 11:02:37;;;;;;;0.00;0.00;;;;;;;;;;2180817;22;20685;-59
2023/03/20 11:03:30;;;;;;;0.00;0.00;;;;;;;;;;2180641;22;20569;-59
2023/03/20 11:04:22;;;;;;;0.00;0.00;;;;;;;;;;2180417;22;20532;-60
2023/03/20 11:05:20;;;;;;;0.00;0.00;;;;;;;;;;2179162;22;20177;-60
2023/03/20 11:06:16;;;;;;;0.00;0.00;;;;;;;;;;2179030;22;20288;-59
2023/03/20 11:07:11;;;;;;;0.00;0.00;;;;;;;;;;2180550;22;20253;-60
2023/03/20 11:08:05;;;;;;;0.00;0.00;;;;;;;;;;2180624;22;20594;-61
2023/03/20 11:09:09;;;;;;;0.00;0.00;;;;;;;;;;2180483;22;20173;-60
2023/03/20 11:10:08;;;;;;;0.00;0.00;;;;;;;;;;2180636;22;20158;-60
2023/03/20 11:11:01;;;;;;;0.00;0.00;;;;;;;;;;2177455;22;20270;-60
2023/03/20 11:11:55;;;;;;;0.00;0.00;;;;;;;;;;2180492;22;20202;-61
2023/03/20 11:12:49;;;;;;;0.00;0.00;;;;;;;;;;2180354;22;20260;-60
2023/03/20 11:13:44;;;;;;;0.00;0.00;;;;;;;;;;2180330;22;20221;-59
2023/03/20 11:14:37;;;;;;;0.00;0.00;;;;;;;;;;2180788;22;20224;-60
2023/03/20 11:15:32;;;;;;;0.00;0.00;;;;;;;;;;2177570;22;20223;-60
2023/03/20 11:16:26;;;;;;;0.00;0.00;;;;;;;;;;2180216;22;20446;-60
2023/03/20 11:17:17;;;;;;;0.00;0.00;;;;;;;;;;2179158;22;20522;-60
2023/03/20 11:18:12;;;;;;;0.00;0.00;;;;;;;;;;2180060;22;20614;-60
2023/03/20 11:19:07;;;;;;;0.00;0.00;;;;;;;;;;2183754;22;20161;-58
2023/03/20 11:20:02;;;;;;;0.00;0.00;;;;;;;;;;2180777;22;20318;-60
2023/03/20 11:20:55;;;;;;;0.00;0.00;;;;;;;;;;2177067;22;20205;-59
2023/03/20 11:21:47;;;;;;;0.00;0.00;;;;;;;;;;2180320;22;20200;-59
2023/03/20 11:22:40;;;;;;;0.00;0.00;;;;;;;;;;2180831;22;20169;-60
2023/03/20 11:23:32;;;;;;;0.00;0.00;;;;;;;;;;2180328;22;20508;-59
2023/03/20 11:24:27;;;;;;;0.00;0.00;;;;;;;;;;2180423;22;20176;-60
2023/03/20 11:25:28;;;;;;;0.08;0.08;;;;;;;;;;2177597;22;20180;-60
2023/03/20 11:26:20;;;;;;;0.00;0.00;;;;;;;;;;2180343;22;20574;-60
2023/03/20 11:27:13;;;;;;;0.00;0.00;;;;;;;;;;2180488;22;20245;-60
2023/03/20 11:28:25;;;;;;;0.00;0.00;;;;;;;;;;2180609;22;20283;-60
2023/03/20 11:29:22;;;;;;;0.00;0.00;;;;;;;;;;2180078;22;20157;-59
2023/03/20 11:30:16;;;;;;;0.00;0.00;;;;;;;;;;2179086;22;20161;-60
2023/03/20 11:31:16;;;;;;;0.00;0.00;;;;;;;;;;2179670;22;20219;-60
2023/03/20 11:32:14;;;;;;;0.00;0.00;;;;;;;;;;2180532;22;20197;-60
2023/03/20 11:33:06;;;;;;;0.00;0.00;;;;;;;;;;2180703;22;20218;-60
2023/03/20 11:34:09;;;;;;;0.00;0.00;;;;;;;;;;2180200;22;20564;-60
2023/03/20 11:35:10;;;;;;;0.00;0.00;;;;;;;;;;2180703;22;20658;-60
2023/03/20 11:36:01;;;;;;;0.00;0.00;;;;;;;;;;2177747;22;20614;-61
2023/03/20 11:36:57;;;;;;;0.00;0.00;;;;;;;;;;2180085;22;20180;-60
2023/03/20 11:37:49;;;;;;;0.00;0.00;;;;;;;;;;2180406;22;20172;-60
2023/03/20 11:38:44;;;;;;;0.00;0.00;;;;;;;;;;2180468;22;20176;-60
2023/03/20 11:39:38;;;;;;;0.00;0.00;;;;;;;;;;2180522;22;20285;-61
2023/03/20 11:40:31;;;;;;;0.00;0.00;;;;;;;;;;2177867;22;23548;-60
2023/03/20 11:41:24;;;;;;;0.00;0.00;;;;;;;;;;2180430;22;20471;-60
2023/03/20 11:42:22;;;;;;;0.00;0.00;;;;;;;;;;2180173;22;20499;-60
2023/03/20 11:43:15;;;;;;;0.00;0.00;;;;;;;;;;2180151;22;20778;-60
2023/03/20 11:44:21;;;;;;;0.00;0.00;;;;;;;;;;2179896;22;20181;-59
2023/03/20 11:45:15;;;;;;;0.00;0.00;;;;;;;;;;2177765;22;20189;-61
2023/03/20 11:46:10;;;;;;;0.00;0.00;;;;;;;;;;2180106;22;20244;-60
2023/03/20 11:47:03;;;;;;;0.00;0.00;;;;;;;;;;2180293;22;20739;-60
2023/03/20 11:47:57;;;;;;;0.00;0.00;;;;;;;;;;2179747;22;20195;-61
2023/03/20 11:49:02;;;;;;;0.00;0.00;;;;;;;;;;2184702;22;20217;-61
2023/03/20 11:49:54;;;;;;;0.00;0.00;;;;;;;;;;2185133;22;20190;-60
2023/03/20 11:50:48;;;;;;;0.00;0.00;;;;;;;;;;2177688;22;20211;-60
2023/03/20 11:51:40;;;;;;;0.00;0.00;;;;;;;;;;2180541;22;20256;-60
2023/03/20 11:52:32;;;;;;;0.00;0.00;;;;;;;;;;2179983;22;20233;-60
2023/03/20 11:53:27;;;;;;;0.00;0.00;;;;;;;;;;2180304;22;20569;-61
2023/03/20 11:54:19;;;;;;;0.00;0.00;;;;;;;;;;2180250;22;20507;-61
2023/03/20 11:55:23;;;;;;;0.08;0.08;;;;;;;;;;2179150;22;20177;-60
2023/03/20 11:56:22;;;;;;;0.00;0.00;;;;;;;;;;2179225;22;20216;-60
2023/03/20 11:57:24;;;;;;;0.00;0.00;;;;;;;;;;2180507;22;20747;-61
2023/03/20 11:58:16;;;;;;;0.00;0.00;;;;;;;;;;2180403;22;20214;-60
2023/03/20 11:59:13;;;;;;;0.00;0.00;;;;;;;;;;2180068;22;20212;-60
2023/03/20 12:00:16;;;;;;;0.00;0.00;;;;;;;;;;2180436;22;20486;-61
2023/03/20 12:01:09;;;;;;;0.00;0.00;;;;;;;;;;2177778;22;20205;-59
2023/03/20 12:02:01;;;;;;;0.00;0.00;;;;;;;;;;2180315;22;20548;-61
2023/03/20 12:02:53;;;;;;;0.00;0.00;;;;;;;;;;2180415;22;20176;-61
2023/03/20 12:03:49;;;;;;;0.00;0.00;;;;;;;;;;2180392;22;20279;-60
2023/03/20 12:04:42;;;;;;;0.00;0.00;;;;;;;;;;2180539;22;20162;-61
2023/03/20 12:05:35;;;;;;;0.00;0.00;;;;;;;;;;2177849;22;20549;-60
2023/03/20 12:06:27;;;;;;;0.00;0.00;;;;;;;;;;2179991;22;20466;-61
2023/03/20 12:07:21;;;;;;;0.00;0.00;;;;;;;;;;2180223;22;20241;-61
2023/03/20 12:08:14;;;;;;;0.00;0.00;;;;;;;;;;2180398;22;20508;-61